バンギ の空港の天気 - METARとTAF

バンギ・ムポコ国際空港 ( FEFF / BGF ) - 中央アフリカ バンギ
飛行場実況気象(Metar)
観測時間12/15 13:00 WAT (12/15 12:00 UTC)
風向・風速西北西 3m/s
視程10km以上
天気現象
全天の4割程度の雲 雲底高度 700m
気温32℃
湿度49%
気圧1011hPa
METARFEFF 151200Z 30005KT 9999 SCT023 32/20 Q1011 NOSIG
過去の天気等 Google飛行場航空写真 Wunderground天気予報

過去48時間のMETAR

飛行場予報(TAF)
発表時間: 12/15 12:00 WAT (12/15 11:00 UTC)
予報対象時間: 15日13時 WAT ~ 16日19時 WAT
風向・風速不定 1m/s
視程10km以上
なし
15日15時 WAT ~ 12日17時 WAT に徐々に
視程3000m
天気現象煙霧
15日20時 WAT ~ 15日22時 WAT に徐々に
視程10km以上
なし
16日3時 WAT ~ 16日5時 WAT に徐々に
視程2000m
天気現象もや
16日4時 WAT ~ 16日7時 WAT に 確率 30% で一時的に
視程500m
天気現象
TAF FEFF 151100Z 1512/1618 VRB02KT CAVOK
BECMG 1514/1216 3000 HZ
BECMG 1519/1521 CAVOK
BECMG 1602/1604 2000 BR
PROB30 TEMPO 1603/1606 0500 FG